createdAt,value
2022-08-26T00:01:44.904Z,10.07
2022-08-26T00:06:54.059Z,10.27
2022-08-26T00:12:03.521Z,10.07
2022-08-26T00:17:11.432Z,8.30
2022-08-26T00:22:21.498Z,8.57
2022-08-26T00:27:30.032Z,8.87
2022-08-26T00:32:38.566Z,8.00
2022-08-26T00:37:47.509Z,7.97
2022-08-26T00:42:55.436Z,9.73
2022-08-26T00:48:04.345Z,8.73
2022-08-26T00:53:14.519Z,8.03
2022-08-26T00:58:23.899Z,8.57
2022-08-26T01:03:33.333Z,7.30
2022-08-26T01:08:41.714Z,6.97
2022-08-26T01:13:49.876Z,7.90
2022-08-26T01:18:59.838Z,9.57
2022-08-26T01:24:07.941Z,9.70
2022-08-26T01:29:19.124Z,8.93
2022-08-26T01:34:30.701Z,8.83
2022-08-26T01:39:40.239Z,9.27
2022-08-26T01:44:51.369Z,8.43
2022-08-26T01:49:59.480Z,8.00
2022-08-26T01:55:08.095Z,7.40
2022-08-26T02:00:29.464Z,7.87
2022-08-26T02:05:39.252Z,7.40
2022-08-26T02:10:47.746Z,8.27
2022-08-26T02:15:55.697Z,7.43
2022-08-26T02:21:03.848Z,7.53
2022-08-26T02:26:31.623Z,8.37
2022-08-26T02:31:37.852Z,8.65
2022-08-26T02:36:46.098Z,9.40
2022-08-26T02:41:54.358Z,8.23
2022-08-26T02:47:02.471Z,8.90
2022-08-26T02:52:10.309Z,10.13
2022-08-26T02:57:18.573Z,9.00
2022-08-26T03:02:26.495Z,9.37
2022-08-26T03:07:34.295Z,9.27
2022-08-26T03:12:43.454Z,8.53
2022-08-26T03:17:53.218Z,10.27
2022-08-26T03:23:01.242Z,9.03
2022-08-26T03:28:10.112Z,11.27
2022-08-26T03:33:17.941Z,10.50
2022-08-26T03:38:25.769Z,9.67
2022-08-26T03:43:33.659Z,9.07
2022-08-26T03:48:41.692Z,8.07
2022-08-26T03:53:49.630Z,8.73
2022-08-26T03:58:57.680Z,7.80
2022-08-26T04:04:06.719Z,8.03
2022-08-26T04:09:18.111Z,6.80
2022-08-26T04:14:26.955Z,7.47
2022-08-26T04:19:34.778Z,8.37
2022-08-26T04:24:43.311Z,7.70
2022-08-26T04:29:54.785Z,7.30
2022-08-26T04:35:01.169Z,7.87
2022-08-26T04:40:10.346Z,9.70
2022-08-26T04:45:22.608Z,9.10
2022-08-26T04:50:29.336Z,8.47
2022-08-26T04:55:39.753Z,7.60
2022-08-26T05:00:47.735Z,7.17
2022-08-26T05:05:55.594Z,7.83
2022-08-26T05:11:05.363Z,9.03
2022-08-26T05:16:14.697Z,9.40
2022-08-26T05:21:25.286Z,10.93
2022-08-26T05:26:35.086Z,9.73
2022-08-26T05:31:43.295Z,11.43
2022-08-26T05:36:51.374Z,13.37
2022-08-26T05:41:59.605Z,14.60
2022-08-26T05:47:08.040Z,18.70
2022-08-26T05:52:16.697Z,18.70
2022-08-26T05:57:25.059Z,18.97
2022-08-26T06:02:33.158Z,16.87
2022-08-26T06:07:42.646Z,16.20
2022-08-26T06:12:50.736Z,15.93
2022-08-26T06:17:58.951Z,13.77
2022-08-26T06:23:08.643Z,12.87
2022-08-26T06:28:17.523Z,14.20
2022-08-26T06:33:27.705Z,13.13
2022-08-26T06:38:36.428Z,13.67
2022-08-26T06:43:44.444Z,13.77
2022-08-26T06:48:52.375Z,13.37
2022-08-26T06:54:01.276Z,13.47
2022-08-26T06:59:09.494Z,12.33
2022-08-26T07:04:21.782Z,13.43
2022-08-26T07:09:29.743Z,12.43
2022-08-26T07:14:38.229Z,12.90
2022-08-26T07:19:46.621Z,12.30
2022-08-26T07:24:55.208Z,11.33
2022-08-26T07:30:04.055Z,10.57
2022-08-26T07:35:11.900Z,11.03
2022-08-26T07:40:19.940Z,10.33
2022-08-26T07:45:29.396Z,9.97
2022-08-26T07:50:49.111Z,9.53
2022-08-26T07:55:47.664Z,9.07
2022-08-26T08:00:55.516Z,9.63
2022-08-26T08:06:04.837Z,8.40
2022-08-26T08:11:14.092Z,7.93
2022-08-26T08:16:22.046Z,7.97
2022-08-26T08:21:32.019Z,9.23
2022-08-26T08:26:39.963Z,9.10
2022-08-26T08:31:58.350Z,8.47
2022-08-26T08:36:59.305Z,9.20
2022-08-26T08:47:31.170Z,8.10
2022-08-26T08:52:39.623Z,8.57
2022-08-26T08:57:53.659Z,7.97
2022-08-26T09:03:02.792Z,8.57
2022-08-26T09:08:13.075Z,9.13
2022-08-26T09:13:25.362Z,7.07
2022-08-26T09:18:35.875Z,7.63
2022-08-26T09:23:44.130Z,6.27
2022-08-26T09:28:55.607Z,8.57
2022-08-26T09:34:06.608Z,7.03
2022-08-26T09:39:17.648Z,6.47
2022-08-26T09:44:25.518Z,6.30
2022-08-26T09:49:36.546Z,6.03
2022-08-26T09:54:45.445Z,5.33
2022-08-26T09:59:54.077Z,5.13
2022-08-26T10:05:09.029Z,5.33
2022-08-26T10:10:17.064Z,6.40
2022-08-26T10:15:25.552Z,5.80
2022-08-26T10:20:36.480Z,5.57
2022-08-26T10:25:48.045Z,5.30
2022-08-26T10:30:59.384Z,5.60
2022-08-26T10:36:15.207Z,5.17
2022-08-26T10:41:23.927Z,3.90
2022-08-26T10:46:34.888Z,3.90
2022-08-26T10:51:48.836Z,4.00
2022-08-26T10:56:59.914Z,4.47
2022-08-26T11:02:10.898Z,4.30
2022-08-26T11:07:21.985Z,4.50
2022-08-26T11:12:34.250Z,4.13
2022-08-26T11:23:11.222Z,4.03
2022-08-26T11:28:22.468Z,3.47
2022-08-26T11:33:34.544Z,3.10
2022-08-26T11:38:43.188Z,3.17
2022-08-26T11:43:52.442Z,3.23
2022-08-26T11:49:02.799Z,3.23
2022-08-26T11:54:15.819Z,3.40
2022-08-26T11:59:25.893Z,3.87
2022-08-26T12:04:35.848Z,4.00
2022-08-26T12:09:48.173Z,3.63
2022-08-26T12:14:59.112Z,3.80
2022-08-26T12:20:08.237Z,3.30
2022-08-26T12:25:16.182Z,4.27
2022-08-26T12:30:26.180Z,3.63
2022-08-26T12:35:35.993Z,4.00
2022-08-26T12:40:46.109Z,3.20
2022-08-26T12:45:56.292Z,3.80
2022-08-26T12:51:04.702Z,3.20
2022-08-26T12:56:16.048Z,4.00
2022-08-26T13:01:24.308Z,4.20
2022-08-26T13:06:32.883Z,3.73
2022-08-26T13:11:45.720Z,4.33
2022-08-26T13:16:54.213Z,3.27
2022-08-26T13:22:02.132Z,3.73
2022-08-26T13:27:11.588Z,3.37
2022-08-26T13:32:20.781Z,3.37
2022-08-26T13:37:34.555Z,2.93
2022-08-26T13:42:43.067Z,3.27
2022-08-26T13:47:48.599Z,3.07
2022-08-26T13:52:56.492Z,3.40
2022-08-26T13:58:04.444Z,3.13
2022-08-26T14:03:13.531Z,2.90
2022-08-26T14:08:22.127Z,2.70
2022-08-26T14:13:30.140Z,2.87
2022-08-26T14:18:42.196Z,2.67
2022-08-26T14:23:50.118Z,3.30
2022-08-26T14:29:00.115Z,3.90
2022-08-26T14:34:08.649Z,2.57
2022-08-26T14:39:17.854Z,2.97
2022-08-26T14:44:28.272Z,3.27
2022-08-26T14:49:36.204Z,2.90
2022-08-26T14:54:44.121Z,4.93
2022-08-26T14:59:53.517Z,3.60
2022-08-26T15:05:04.329Z,3.03
2022-08-26T15:10:14.237Z,3.70
2022-08-26T15:15:22.299Z,2.80
2022-08-26T15:20:30.182Z,3.00
2022-08-26T15:25:38.109Z,2.90
2022-08-26T15:30:46.778Z,2.80
2022-08-26T15:35:54.975Z,3.33
2022-08-26T15:41:03.452Z,3.30
2022-08-26T15:46:13.008Z,3.07
2022-08-26T15:51:23.692Z,2.60
2022-08-26T15:56:34.546Z,2.60
2022-08-26T16:01:43.343Z,2.90
2022-08-26T16:06:52.439Z,3.03
2022-08-26T16:12:00.414Z,3.00
2022-08-26T16:17:08.620Z,2.50
2022-08-26T16:22:16.508Z,2.90
2022-08-26T16:27:24.590Z,2.73
2022-08-26T16:32:32.456Z,2.53
2022-08-26T16:37:40.538Z,2.70
2022-08-26T16:42:48.503Z,2.57
2022-08-26T16:47:56.426Z,2.80
2022-08-26T16:53:04.995Z,2.60
2022-08-26T16:58:13.706Z,2.40
2022-08-26T17:03:21.566Z,2.60
2022-08-26T17:08:29.447Z,2.70
2022-08-26T17:13:38.392Z,2.90
2022-08-26T17:18:46.320Z,3.00
2022-08-26T17:23:54.813Z,2.90
2022-08-26T17:29:03.105Z,3.10
2022-08-26T17:34:10.966Z,3.07
2022-08-26T17:39:18.874Z,2.40
2022-08-26T17:44:26.900Z,2.43
2022-08-26T17:49:34.836Z,3.00
2022-08-26T17:54:43.496Z,2.80
2022-08-26T17:59:51.880Z,2.73
2022-08-26T18:05:00.664Z,2.63
2022-08-26T18:10:13.022Z,2.77
2022-08-26T18:15:19.097Z,2.80
2022-08-26T18:20:27.142Z,3.13
2022-08-26T18:25:35.105Z,2.47
2022-08-26T18:30:43.929Z,2.63
2022-08-26T18:35:52.966Z,2.77
2022-08-26T18:41:00.864Z,3.10
2022-08-26T18:46:10.148Z,2.73
2022-08-26T18:51:26.326Z,3.37
2022-08-26T18:56:35.396Z,3.07
2022-08-26T19:01:43.670Z,3.07
2022-08-26T19:06:52.107Z,2.63
2022-08-26T19:12:00.419Z,2.90
2022-08-26T19:17:09.854Z,3.00
2022-08-26T19:22:19.592Z,2.73
2022-08-26T19:27:27.919Z,3.30
2022-08-26T19:32:35.852Z,2.97
2022-08-26T19:37:43.810Z,2.80
2022-08-26T19:42:52.765Z,3.13
2022-08-26T19:48:00.599Z,3.20
2022-08-26T19:53:09.712Z,4.17
2022-08-26T19:58:17.555Z,3.47
2022-08-26T20:03:26.178Z,3.73
2022-08-26T20:08:34.894Z,3.37
2022-08-26T20:13:42.971Z,3.50
2022-08-26T20:18:52.371Z,4.50
2022-08-26T20:24:03.813Z,3.80
2022-08-26T20:29:12.982Z,3.17
2022-08-26T20:34:21.110Z,3.70
2022-08-26T20:39:29.908Z,3.60
2022-08-26T20:44:37.924Z,3.73
2022-08-26T20:49:48.099Z,3.23
2022-08-26T20:54:57.789Z,2.90
2022-08-26T21:00:07.870Z,3.17
2022-08-26T21:05:16.047Z,3.57
2022-08-26T21:10:24.087Z,3.20
2022-08-26T21:15:32.216Z,4.13
2022-08-26T21:20:40.171Z,4.10
2022-08-26T21:25:49.819Z,4.03
2022-08-26T21:30:57.668Z,4.03
2022-08-26T21:36:06.467Z,3.60
2022-08-26T21:41:18.147Z,4.23
2022-08-26T21:46:27.271Z,4.17
2022-08-26T21:51:36.986Z,4.03
2022-08-26T21:56:46.971Z,3.60
2022-08-26T22:01:55.016Z,4.23
2022-08-26T22:07:03.747Z,3.77
2022-08-26T22:12:12.001Z,3.60
2022-08-26T22:17:19.824Z,4.33
2022-08-26T22:22:28.812Z,4.30
2022-08-26T22:27:40.536Z,4.33
2022-08-26T22:32:47.983Z,4.60
2022-08-26T22:38:02.164Z,4.20
2022-08-26T22:43:05.954Z,4.93
2022-08-26T22:48:15.806Z,5.17
2022-08-26T22:53:23.778Z,5.93
2022-08-26T22:58:32.216Z,5.43
2022-08-26T23:03:40.137Z,4.97
2022-08-26T23:08:48.104Z,4.50
2022-08-26T23:13:56.323Z,5.03
2022-08-26T23:19:05.176Z,4.70
2022-08-26T23:24:13.362Z,4.43
2022-08-26T23:29:21.327Z,4.87
2022-08-26T23:34:30.790Z,4.90
2022-08-26T23:39:38.838Z,5.07
2022-08-26T23:44:47.009Z,6.37
2022-08-26T23:49:54.947Z,5.70
2022-08-26T23:55:02.845Z,5.63
